createdAt,value
2022-08-10T00:00:54.350Z,3.00
2022-08-10T00:01:57.207Z,3.20
2022-08-10T00:03:00.751Z,2.75
2022-08-10T00:04:04.043Z,3.42
2022-08-10T00:05:07.110Z,3.25
2022-08-10T00:06:09.833Z,3.30
2022-08-10T00:07:12.383Z,3.35
2022-08-10T00:08:22.619Z,3.05
2022-08-10T00:09:26.876Z,3.10
2022-08-10T00:10:29.680Z,2.88
2022-08-10T00:11:32.588Z,3.30
2022-08-10T00:12:54.481Z,3.22
2022-08-10T00:13:57.646Z,2.78
2022-08-10T00:15:04.796Z,2.42
2022-08-10T00:16:07.483Z,3.28
2022-08-10T00:17:10.018Z,3.50
2022-08-10T00:18:13.017Z,3.03
2022-08-10T00:20:03.693Z,3.28
2022-08-10T00:20:58.125Z,2.95
2022-08-10T00:22:00.827Z,3.15
2022-08-10T00:23:03.656Z,2.95
2022-08-10T00:24:06.362Z,3.10
2022-08-10T00:25:09.967Z,2.95
2022-08-10T00:26:12.947Z,3.05
2022-08-10T00:27:52.635Z,3.00
2022-08-10T00:28:39.080Z,3.53
2022-08-10T00:29:41.716Z,2.88
2022-08-10T00:30:44.599Z,3.10
2022-08-10T00:31:57.866Z,2.80
2022-08-10T00:33:02.146Z,2.83
2022-08-10T00:34:05.000Z,3.42
2022-08-10T00:35:08.084Z,3.05
2022-08-10T00:36:10.735Z,3.30
2022-08-10T00:37:14.677Z,2.90
2022-08-10T00:38:17.288Z,3.05
2022-08-10T00:39:19.931Z,3.45
2022-08-10T00:40:37.460Z,3.08
2022-08-10T00:41:40.567Z,3.13
2022-08-10T00:42:43.108Z,3.30
2022-08-10T00:43:45.693Z,3.47
2022-08-10T00:44:53.674Z,3.28
2022-08-10T00:45:58.985Z,2.72
2022-08-10T00:47:02.788Z,2.88
2022-08-10T00:48:05.574Z,2.90
2022-08-10T00:49:08.118Z,2.97
2022-08-10T00:50:11.060Z,3.13
2022-08-10T00:51:13.997Z,3.08
2022-08-10T00:52:19.006Z,2.70
2022-08-10T00:53:21.767Z,3.10
2022-08-10T00:54:25.186Z,2.85
2022-08-10T00:55:27.866Z,2.85
2022-08-10T00:57:09.902Z,3.20
2022-08-10T00:57:55.143Z,3.15
2022-08-10T00:58:58.319Z,2.95
2022-08-10T01:00:01.325Z,3.25
2022-08-10T01:01:03.974Z,3.17
2022-08-10T01:02:09.787Z,3.28
2022-08-10T01:03:15.348Z,2.88
2022-08-10T01:04:58.063Z,2.88
2022-08-10T01:05:55.137Z,2.80
2022-08-10T01:07:29.965Z,2.80
2022-08-10T01:08:39.920Z,2.85
2022-08-10T01:10:03.972Z,2.88
2022-08-10T01:12:39.595Z,2.75
2022-08-10T01:12:49.158Z,2.95
2022-08-10T01:14:21.132Z,2.88
2022-08-10T01:15:23.707Z,2.33
2022-08-10T01:16:41.670Z,3.03
2022-08-10T01:17:51.595Z,2.70
2022-08-10T01:19:36.170Z,2.83
2022-08-10T01:21:06.792Z,3.10
2022-08-10T01:22:17.888Z,2.40
2022-08-10T01:23:26.130Z,3.38
2022-08-10T01:24:58.046Z,2.60
2022-08-10T01:26:31.452Z,2.85
2022-08-10T01:27:39.430Z,2.75
2022-08-10T01:29:00.337Z,3.22
2022-08-10T01:31:10.063Z,3.05
2022-08-10T01:32:14.578Z,2.42
2022-08-10T01:33:31.924Z,2.95
2022-08-10T01:35:12.772Z,2.95
2022-08-10T01:36:19.845Z,2.88
2022-08-10T01:37:39.450Z,2.60
2022-08-10T01:38:46.000Z,3.35
2022-08-10T01:39:53.505Z,3.08
2022-08-10T01:41:12.860Z,2.95
2022-08-10T01:42:18.688Z,2.90
2022-08-10T01:43:22.061Z,2.80
2022-08-10T01:44:34.670Z,2.60
2022-08-10T01:45:45.137Z,2.55
2022-08-10T01:46:57.250Z,2.80
2022-08-10T01:49:22.740Z,4.25
2022-08-10T01:50:59.652Z,3.03
2022-08-10T01:52:03.685Z,3.25
2022-08-10T01:53:12.769Z,3.40
2022-08-10T01:54:20.057Z,3.22
2022-08-10T01:55:23.569Z,3.03
2022-08-10T01:56:31.203Z,3.45
2022-08-10T01:57:34.593Z,3.65
2022-08-10T01:58:37.735Z,2.92
2022-08-10T01:59:42.219Z,3.55
2022-08-10T02:00:57.864Z,2.83
2022-08-10T02:02:03.288Z,2.83
2022-08-10T02:03:08.136Z,2.97
2022-08-10T02:04:13.096Z,2.38
2022-08-10T02:05:16.203Z,2.90
2022-08-10T02:06:19.520Z,3.05
2022-08-10T02:07:25.144Z,2.80
2022-08-10T02:08:29.229Z,2.92
2022-08-10T02:09:36.697Z,2.75
2022-08-10T02:10:40.905Z,2.60
2022-08-10T02:11:55.692Z,2.83
2022-08-10T02:13:08.766Z,2.85
2022-08-10T02:14:14.219Z,2.90
2022-08-10T02:15:19.614Z,3.42
2022-08-10T02:16:24.086Z,3.13
2022-08-10T02:17:59.387Z,2.90
2022-08-10T02:18:52.773Z,3.00
2022-08-10T02:19:59.114Z,2.95
2022-08-10T02:21:04.628Z,2.83
2022-08-10T02:22:37.117Z,2.83
2022-08-10T02:23:34.789Z,3.20
2022-08-10T02:24:39.462Z,2.55
2022-08-10T02:25:43.939Z,2.97
2022-08-10T02:26:47.465Z,2.72
2022-08-10T02:27:50.519Z,3.17
2022-08-10T02:28:53.666Z,2.75
2022-08-10T02:29:56.700Z,3.08
2022-08-10T02:31:06.942Z,2.55
2022-08-10T02:32:18.537Z,2.40
2022-08-10T02:33:38.159Z,2.78
2022-08-10T02:34:41.466Z,2.97
2022-08-10T02:35:54.976Z,2.67
2022-08-10T02:36:58.944Z,2.50
2022-08-10T02:38:05.428Z,3.28
2022-08-10T02:39:08.435Z,2.42
2022-08-10T02:45:14.004Z,3.88
2022-08-10T02:45:17.611Z,2.80
2022-08-10T02:45:19.602Z,2.75
2022-08-10T02:45:21.245Z,2.90
2022-08-10T02:46:28.831Z,2.95
2022-08-10T02:47:51.511Z,2.60
2022-08-10T02:49:02.035Z,2.63
2022-08-10T02:50:15.353Z,2.55
2022-08-10T02:52:07.928Z,3.10
2022-08-10T02:52:55.673Z,2.33
2022-08-10T02:54:06.318Z,2.72
2022-08-10T02:55:41.788Z,2.67
2022-08-10T02:57:09.631Z,2.65
2022-08-10T02:58:20.319Z,2.80
2022-08-10T03:00:27.519Z,2.72
2022-08-10T03:01:37.046Z,2.50
2022-08-10T03:02:43.547Z,2.80
2022-08-10T03:04:02.489Z,2.67
2022-08-10T03:05:12.072Z,2.85
2022-08-10T03:06:20.296Z,3.05
2022-08-10T03:07:42.926Z,2.35
2022-08-10T03:08:48.554Z,2.80
2022-08-10T03:09:52.717Z,2.85
2022-08-10T03:10:56.871Z,2.60
2022-08-10T03:12:37.805Z,3.10
2022-08-10T03:13:24.327Z,2.67
2022-08-10T03:14:27.772Z,2.63
2022-08-10T03:15:32.081Z,2.70
2022-08-10T03:16:35.073Z,2.63
2022-08-10T03:17:38.103Z,2.60
2022-08-10T03:18:41.045Z,2.50
2022-08-10T03:20:35.846Z,2.65
2022-08-10T03:21:11.800Z,2.72
2022-08-10T03:22:15.658Z,2.78
2022-08-10T03:23:21.914Z,3.03
2022-08-10T03:24:30.519Z,3.03
2022-08-10T03:25:36.318Z,2.67
2022-08-10T03:26:39.624Z,2.88
2022-08-10T03:27:43.103Z,2.55
2022-08-10T03:28:45.897Z,2.53
2022-08-10T03:30:29.697Z,2.90
2022-08-10T03:31:11.446Z,2.55
2022-08-10T03:32:14.409Z,2.38
2022-08-10T03:33:17.688Z,3.00
2022-08-10T03:34:33.084Z,2.75
2022-08-10T03:35:36.509Z,2.75
2022-08-10T03:36:43.935Z,3.30
2022-08-10T03:37:47.810Z,2.83
2022-08-10T03:38:53.522Z,2.42
2022-08-10T03:39:56.289Z,3.13
2022-08-10T03:41:02.856Z,2.83
2022-08-10T03:42:07.631Z,2.67
2022-08-10T03:43:11.971Z,2.50
2022-08-10T03:44:19.041Z,2.90
2022-08-10T03:45:22.679Z,2.53
2022-08-10T03:46:27.114Z,2.28
2022-08-10T03:47:30.604Z,2.45
2022-08-10T03:48:48.383Z,2.38
2022-08-10T03:49:53.015Z,3.10
2022-08-10T03:50:56.935Z,2.85
2022-08-10T03:51:59.949Z,2.90
2022-08-10T03:53:03.087Z,2.60
2022-08-10T03:54:07.483Z,2.97
2022-08-10T03:55:11.532Z,3.00
2022-08-10T03:56:36.685Z,2.45
2022-08-10T03:57:41.809Z,2.20
2022-08-10T03:58:52.494Z,2.55
2022-08-10T03:59:55.074Z,2.45
2022-08-10T04:00:57.911Z,2.10
2022-08-10T04:02:44.711Z,2.08
2022-08-10T04:03:23.713Z,2.03
2022-08-10T04:04:32.884Z,2.90
2022-08-10T04:05:38.087Z,2.53
2022-08-10T04:06:41.794Z,2.35
2022-08-10T04:07:44.769Z,2.35
2022-08-10T04:08:47.603Z,2.75
2022-08-10T04:09:55.921Z,2.17
2022-08-10T04:10:59.562Z,1.90
2022-08-10T04:12:03.438Z,2.28
2022-08-10T04:13:06.013Z,2.45
2022-08-10T04:14:38.043Z,2.47
2022-08-10T04:15:31.571Z,2.05
2022-08-10T04:16:34.209Z,2.15
2022-08-10T04:18:05.115Z,2.60
2022-08-10T04:18:59.520Z,2.58
2022-08-10T04:20:02.237Z,2.22
2022-08-10T04:21:11.813Z,2.10
2022-08-10T04:22:18.389Z,2.88
2022-08-10T04:23:25.978Z,2.60
2022-08-10T04:24:31.909Z,2.30
2022-08-10T04:25:36.611Z,2.13
2022-08-10T04:26:39.670Z,2.50
2022-08-10T04:27:42.900Z,1.90
2022-08-10T04:28:45.628Z,2.58
2022-08-10T04:29:50.951Z,2.40
2022-08-10T04:30:54.972Z,2.45
2022-08-10T04:31:57.550Z,2.17
2022-08-10T04:33:02.079Z,2.17
2022-08-10T04:34:08.860Z,2.30
2022-08-10T04:35:12.830Z,2.00
2022-08-10T04:36:17.509Z,1.98
2022-08-10T04:37:21.179Z,2.17
2022-08-10T04:38:25.501Z,2.30
2022-08-10T04:39:28.344Z,1.77
2022-08-10T04:40:31.891Z,2.20
2022-08-10T04:41:35.618Z,1.92
2022-08-10T04:42:38.795Z,2.42
2022-08-10T04:43:42.014Z,2.30
2022-08-10T04:44:44.652Z,2.30
2022-08-10T04:45:51.456Z,2.30
2022-08-10T04:46:57.844Z,2.13
2022-08-10T04:48:03.463Z,2.03
2022-08-10T04:49:06.384Z,1.92
2022-08-10T04:50:29.099Z,2.00
2022-08-10T04:51:33.334Z,2.00
2022-08-10T04:52:36.293Z,2.33
2022-08-10T04:54:05.316Z,1.90
2022-08-10T04:55:02.333Z,2.10
2022-08-10T04:56:05.603Z,2.17
2022-08-10T04:57:08.094Z,1.83
2022-08-10T04:58:10.806Z,2.25
2022-08-10T04:59:13.257Z,2.10
2022-08-10T05:00:18.832Z,2.00
2022-08-10T05:01:24.934Z,2.17
2022-08-10T05:02:32.118Z,2.22
2022-08-10T05:03:35.409Z,2.03
2022-08-10T05:04:58.401Z,1.83
2022-08-10T05:06:01.473Z,1.70
2022-08-10T05:07:04.821Z,1.98
2022-08-10T05:08:07.612Z,2.15
2022-08-10T05:09:10.211Z,2.08
2022-08-10T05:10:13.688Z,1.85
2022-08-10T05:11:23.955Z,1.73
2022-08-10T05:13:29.369Z,1.75
2022-08-10T05:14:32.020Z,1.80
2022-08-10T05:15:34.863Z,1.42
2022-08-10T05:16:37.412Z,1.73
2022-08-10T05:18:03.125Z,1.77
2022-08-10T05:19:04.874Z,1.40
2022-08-10T05:20:09.583Z,1.67
2022-08-10T05:21:12.638Z,1.98
2022-08-10T05:22:40.749Z,1.58
2022-08-10T05:23:43.610Z,1.38
2022-08-10T05:24:46.340Z,1.63
2022-08-10T05:25:48.879Z,1.38
2022-08-10T05:27:00.559Z,2.08
2022-08-10T05:28:12.553Z,2.20
2022-08-10T05:29:15.117Z,2.38
2022-08-10T05:30:20.570Z,2.60
2022-08-10T05:31:24.022Z,2.97
2022-08-10T05:32:27.010Z,4.10
2022-08-10T05:33:29.983Z,3.08
2022-08-10T05:34:32.512Z,2.25
2022-08-10T05:35:55.409Z,1.92
2022-08-10T05:36:58.868Z,1.80
2022-08-10T05:38:10.038Z,1.30
2022-08-10T05:39:18.382Z,1.50
2022-08-10T05:40:31.489Z,1.75
2022-08-10T05:41:34.320Z,1.63
2022-08-10T05:42:37.477Z,1.48
2022-08-10T05:43:40.733Z,1.65
2022-08-10T05:44:44.436Z,1.80
2022-08-10T05:46:18.543Z,1.67
2022-08-10T05:47:12.884Z,1.50
2022-08-10T05:48:54.290Z,1.80
2022-08-10T05:49:38.386Z,1.60
2022-08-10T05:50:41.217Z,1.45
2022-08-10T05:51:44.437Z,1.48
2022-08-10T05:52:47.221Z,1.35
2022-08-10T05:54:01.398Z,1.52
2022-08-10T05:55:07.616Z,1.50
2022-08-10T05:56:10.318Z,1.40
2022-08-10T05:57:13.620Z,1.40
2022-08-10T05:58:16.360Z,1.35
2022-08-10T06:00:33.503Z,1.35
2022-08-10T06:00:49.932Z,1.20
2022-08-10T06:02:31.647Z,1.50
2022-08-10T06:03:17.341Z,1.25
2022-08-10T06:04:32.776Z,1.38
2022-08-10T06:05:37.788Z,1.25
2022-08-10T06:06:41.317Z,1.33
2022-08-10T06:08:13.685Z,1.15
2022-08-10T06:09:17.161Z,1.20
2022-08-10T06:10:31.086Z,1.58
2022-08-10T06:12:27.718Z,1.30
2022-08-10T06:13:27.135Z,1.13
2022-08-10T06:14:59.878Z,1.15
2022-08-10T06:16:10.906Z,1.30
2022-08-10T06:17:14.011Z,1.30
2022-08-10T06:18:16.741Z,1.50
2022-08-10T06:19:19.386Z,1.77
2022-08-10T06:20:22.281Z,1.58
2022-08-10T06:21:25.335Z,1.35
2022-08-10T06:22:32.337Z,1.10
2022-08-10T06:23:35.614Z,1.40
2022-08-10T06:25:04.672Z,1.13
2022-08-10T06:26:10.629Z,1.40
2022-08-10T06:27:16.878Z,1.30
2022-08-10T06:28:20.305Z,1.58
2022-08-10T06:29:23.366Z,1.15
2022-08-10T06:30:27.194Z,1.30
2022-08-10T06:31:48.113Z,1.30
2022-08-10T06:32:55.892Z,1.38
2022-08-10T06:33:59.388Z,1.00
2022-08-10T06:35:07.115Z,1.35
2022-08-10T06:36:10.802Z,1.35
2022-08-10T06:37:16.051Z,0.98
2022-08-10T06:38:18.871Z,1.08
2022-08-10T06:39:33.438Z,1.13
2022-08-10T06:40:40.424Z,1.25
2022-08-10T06:41:57.695Z,1.40
2022-08-10T06:43:15.154Z,1.02
2022-08-10T06:44:26.331Z,1.00
2022-08-10T06:45:35.707Z,1.42
2022-08-10T06:46:44.971Z,1.60
2022-08-10T06:48:02.968Z,1.63
2022-08-10T06:49:07.654Z,5.40
2022-08-10T06:50:44.979Z,3.38
2022-08-10T06:51:57.316Z,2.33
2022-08-10T06:53:02.254Z,1.63
2022-08-10T06:54:09.746Z,1.38
2022-08-10T06:55:16.623Z,2.05
2022-08-10T06:56:37.707Z,1.77
2022-08-10T06:57:43.088Z,1.30
2022-08-10T06:58:55.176Z,1.20
2022-08-10T06:59:59.533Z,1.55
2022-08-10T07:01:07.395Z,1.48
2022-08-10T07:02:15.200Z,1.13
2022-08-10T07:03:18.534Z,1.00
2022-08-10T07:04:34.670Z,1.17
2022-08-10T07:05:50.978Z,1.17
2022-08-10T07:06:55.608Z,0.98
2022-08-10T07:08:00.235Z,1.58
2022-08-10T07:09:03.864Z,1.08
2022-08-10T07:10:07.533Z,1.35
2022-08-10T07:11:12.167Z,0.95
2022-08-10T07:12:15.617Z,1.00
2022-08-10T07:14:15.500Z,1.13
2022-08-10T07:14:44.787Z,1.10
2022-08-10T07:16:00.334Z,0.93
2022-08-10T07:17:03.488Z,0.90
2022-08-10T07:18:06.654Z,1.10
2022-08-10T07:19:11.052Z,1.35
2022-08-10T07:20:18.938Z,0.80
2022-08-10T07:21:23.860Z,1.08
2022-08-10T07:23:50.631Z,1.00
2022-08-10T07:23:56.868Z,0.90
2022-08-10T07:25:05.909Z,1.00
2022-08-10T07:26:10.048Z,0.77
2022-08-10T07:27:13.141Z,0.88
2022-08-10T07:28:16.693Z,0.70
2022-08-10T07:29:26.554Z,0.63
2022-08-10T07:30:45.552Z,1.23
2022-08-10T07:31:56.995Z,0.75
2022-08-10T07:33:01.708Z,0.88
2022-08-10T07:34:07.251Z,1.30
2022-08-10T07:35:12.550Z,0.60
2022-08-10T07:36:15.692Z,1.58
2022-08-10T07:37:19.367Z,4.65
2022-08-10T07:38:27.393Z,6.30
2022-08-10T07:40:02.885Z,3.17
2022-08-10T07:40:55.279Z,2.00
2022-08-10T07:41:59.266Z,2.42
2022-08-10T07:43:05.064Z,1.90
2022-08-10T07:44:09.708Z,1.50
2022-08-10T07:45:12.842Z,1.00
2022-08-10T07:46:16.281Z,1.13
2022-08-10T07:47:52.938Z,0.70
2022-08-10T07:48:59.989Z,0.80
2022-08-10T07:50:06.002Z,0.80
2022-08-10T07:51:09.657Z,0.90
2022-08-10T07:52:12.377Z,0.73
2022-08-10T07:53:20.471Z,0.57
2022-08-10T07:54:27.928Z,0.70
2022-08-10T07:56:01.657Z,2.20
2022-08-10T07:57:00.670Z,1.50
2022-08-10T07:58:03.619Z,1.20
2022-08-10T07:59:12.449Z,1.45
2022-08-10T08:00:15.879Z,2.00
2022-08-10T08:01:21.530Z,1.60
2022-08-10T08:02:29.257Z,1.20
2022-08-10T08:03:36.283Z,1.60
2022-08-10T08:04:39.204Z,1.10
2022-08-10T08:05:57.657Z,1.55
2022-08-10T08:07:08.557Z,0.82
2022-08-10T08:08:14.237Z,1.23
2022-08-10T08:09:19.172Z,0.90
2022-08-10T08:10:24.867Z,0.57
2022-08-10T08:11:29.272Z,0.70
2022-08-10T08:12:36.755Z,0.90
2022-08-10T08:13:40.443Z,1.20
2022-08-10T08:14:44.598Z,0.82
2022-08-10T08:16:20.612Z,1.00
2022-08-10T08:17:11.031Z,0.77
2022-08-10T08:18:14.792Z,0.95
2022-08-10T08:19:28.968Z,0.65
2022-08-10T08:20:40.233Z,0.70
2022-08-10T08:24:07.237Z,0.60
2022-08-10T08:24:10.890Z,0.90
2022-08-10T08:24:32.438Z,0.82
2022-08-10T08:25:36.700Z,0.88
2022-08-10T08:26:39.520Z,0.88
2022-08-10T08:27:47.495Z,0.80
2022-08-10T08:28:51.901Z,0.70
2022-08-10T08:29:54.822Z,0.70
2022-08-10T08:31:02.645Z,0.65
2022-08-10T08:32:08.005Z,0.60
2022-08-10T08:33:12.762Z,0.80
2022-08-10T08:34:38.223Z,0.80
2022-08-10T08:35:41.283Z,0.70
2022-08-10T08:36:45.091Z,0.65
2022-08-10T08:38:33.687Z,0.60
2022-08-10T08:39:12.782Z,0.68
2022-08-10T08:40:21.769Z,0.60
2022-08-10T08:41:30.414Z,0.70
2022-08-10T08:42:52.690Z,0.50
2022-08-10T08:44:19.906Z,0.50
2022-08-10T08:45:31.798Z,0.65
2022-08-10T08:46:59.461Z,0.60
2022-08-10T08:48:09.423Z,0.70
2022-08-10T08:50:07.895Z,0.70
2022-08-10T08:52:05.998Z,1.10
2022-08-10T08:52:59.851Z,0.95
2022-08-10T08:54:32.830Z,0.98
2022-08-10T08:56:04.322Z,0.80
2022-08-10T08:57:53.617Z,0.70
2022-08-10T08:59:14.895Z,0.50
2022-08-10T09:00:41.456Z,0.80
2022-08-10T09:01:59.292Z,1.00
2022-08-10T09:03:07.939Z,0.75
2022-08-10T09:04:31.757Z,0.82
2022-08-10T09:06:06.458Z,1.00
2022-08-10T09:08:00.699Z,0.80
2022-08-10T09:09:15.709Z,1.02
2022-08-10T09:10:39.610Z,0.82
2022-08-10T09:12:03.485Z,0.60
2022-08-10T09:13:33.821Z,0.90
2022-08-10T09:14:49.314Z,0.70
2022-08-10T09:16:15.922Z,1.00
2022-08-10T09:17:59.616Z,0.55
2022-08-10T09:19:36.696Z,0.77
2022-08-10T09:20:48.204Z,0.63
2022-08-10T09:22:17.969Z,0.60
2022-08-10T09:24:04.141Z,0.60
2022-08-10T09:25:33.149Z,0.60
2022-08-10T09:26:43.278Z,0.70
2022-08-10T09:27:49.648Z,0.43
2022-08-10T09:29:12.840Z,0.70
2022-08-10T09:30:19.245Z,0.40
2022-08-10T09:31:55.814Z,0.47
2022-08-10T09:36:22.291Z,0.40
2022-08-10T09:36:22.615Z,0.40
2022-08-10T09:36:42.488Z,0.63
2022-08-10T09:38:12.884Z,0.50
2022-08-10T09:40:06.587Z,0.50
2022-08-10T09:41:50.220Z,0.40
2022-08-10T09:43:30.139Z,0.77
2022-08-10T09:44:57.974Z,0.55
2022-08-10T09:46:01.460Z,0.55
2022-08-10T09:47:58.841Z,0.50
2022-08-10T09:49:08.788Z,0.60
2022-08-10T09:50:24.368Z,0.52
2022-08-10T09:51:48.052Z,0.70
2022-08-10T09:52:59.200Z,0.50
2022-08-10T09:54:22.341Z,0.40
2022-08-10T09:56:22.226Z,0.60
2022-08-10T09:58:11.422Z,0.63
2022-08-10T09:59:26.949Z,0.55
2022-08-10T10:00:51.231Z,0.50
2022-08-10T10:02:02.749Z,0.52
2022-08-10T10:03:18.887Z,0.40
2022-08-10T10:04:38.725Z,0.50
2022-08-10T10:06:06.194Z,0.30
2022-08-10T10:07:12.237Z,0.50
2022-08-10T10:08:21.476Z,0.50
2022-08-10T10:09:39.926Z,0.50
2022-08-10T10:10:56.736Z,0.68
2022-08-10T10:12:09.701Z,0.60
2022-08-10T10:13:20.422Z,0.80
2022-08-10T10:15:24.104Z,0.60
2022-08-10T10:16:48.890Z,0.60
2022-08-10T10:18:01.402Z,0.50
2022-08-10T10:19:27.807Z,0.50
2022-08-10T10:20:45.243Z,0.70
2022-08-10T10:22:14.584Z,0.95
2022-08-10T10:24:56.157Z,1.05
2022-08-10T10:26:21.508Z,0.60
2022-08-10T10:27:36.770Z,0.75
2022-08-10T10:29:37.614Z,0.88
2022-08-10T10:30:39.163Z,0.82
2022-08-10T10:31:55.850Z,0.60
2022-08-10T10:33:19.486Z,0.45
2022-08-10T10:34:52.165Z,0.70
2022-08-10T10:35:55.979Z,0.40
2022-08-10T10:37:00.392Z,0.50
2022-08-10T10:38:09.307Z,0.60
2022-08-10T10:39:14.178Z,0.32
2022-08-10T10:40:18.824Z,0.60
2022-08-10T10:42:04.047Z,0.45
2022-08-10T10:43:11.571Z,0.40
2022-08-10T10:44:17.325Z,0.40
2022-08-10T10:45:27.455Z,0.55
2022-08-10T10:46:48.135Z,0.32
2022-08-10T10:48:00.040Z,0.40
2022-08-10T10:49:16.552Z,0.40
2022-08-10T10:50:40.248Z,0.60
2022-08-10T10:52:10.488Z,0.57
2022-08-10T10:53:19.512Z,0.50
2022-08-10T10:54:42.139Z,0.40
2022-08-10T10:56:16.130Z,0.52
2022-08-10T10:58:00.446Z,0.40
2022-08-10T10:59:53.891Z,0.70
2022-08-10T11:01:08.533Z,0.40
2022-08-10T11:02:41.969Z,0.52
2022-08-10T11:03:47.582Z,0.43
2022-08-10T11:05:14.840Z,0.30
2022-08-10T11:06:40.947Z,0.30
2022-08-10T11:08:12.216Z,0.32
2022-08-10T11:10:08.675Z,0.45
2022-08-10T11:12:02.085Z,0.28
2022-08-10T11:14:27.302Z,0.50
2022-08-10T11:15:01.036Z,0.57
2022-08-10T11:16:19.942Z,0.55
2022-08-10T11:17:41.095Z,0.50
2022-08-10T11:18:56.549Z,0.50
2022-08-10T11:20:37.186Z,0.40
2022-08-10T11:22:04.047Z,0.40
2022-08-10T11:23:14.586Z,0.43
2022-08-10T11:24:42.996Z,0.57
2022-08-10T11:25:52.522Z,0.50
2022-08-10T11:27:03.469Z,0.47
2022-08-10T11:28:25.620Z,0.55
2022-08-10T11:29:49.904Z,0.60
2022-08-10T11:30:59.426Z,0.50
2022-08-10T11:32:20.733Z,0.38
2022-08-10T11:34:47.642Z,0.43
2022-08-10T11:35:45.856Z,0.50
2022-08-10T11:36:58.923Z,0.30
2022-08-10T11:38:34.867Z,0.52
2022-08-10T11:39:49.770Z,0.30
2022-08-10T11:42:10.242Z,0.40
2022-08-10T11:43:01.087Z,0.50
2022-08-10T11:44:22.840Z,0.40
2022-08-10T11:45:31.707Z,0.55
2022-08-10T11:46:36.933Z,0.30
2022-08-10T11:47:54.629Z,0.30
2022-08-10T11:49:11.046Z,0.38
2022-08-10T11:50:25.449Z,0.20
2022-08-10T11:51:42.297Z,0.32
2022-08-10T11:52:44.839Z,0.40
2022-08-10T11:54:28.594Z,0.32
2022-08-10T11:55:33.172Z,0.20
2022-08-10T11:57:02.019Z,0.25
2022-08-10T11:58:27.522Z,0.20
2022-08-10T11:59:51.541Z,0.30
2022-08-10T12:01:04.210Z,0.50
2022-08-10T12:02:07.637Z,0.40
2022-08-10T12:03:10.732Z,0.40
2022-08-10T12:04:14.656Z,0.38
2022-08-10T12:05:20.739Z,0.40
2022-08-10T12:06:54.238Z,0.40
2022-08-10T12:10:02.980Z,0.63
2022-08-10T12:10:10.418Z,1.02
2022-08-10T12:10:41.025Z,0.68
2022-08-10T12:11:44.460Z,0.80
2022-08-10T12:12:55.819Z,0.50
2022-08-10T12:14:35.746Z,0.20
2022-08-10T12:16:05.380Z,0.50
2022-08-10T12:17:35.996Z,0.35
2022-08-10T12:18:46.335Z,0.68
2022-08-10T12:21:14.274Z,0.88
2022-08-10T12:22:28.525Z,0.55
2022-08-10T12:23:46.086Z,0.40
2022-08-10T12:25:00.945Z,0.77
2022-08-10T12:26:13.335Z,0.60
2022-08-10T12:27:24.126Z,0.47
2022-08-10T12:28:49.224Z,0.70
2022-08-10T12:30:00.523Z,1.10
2022-08-10T12:31:06.891Z,0.70
2022-08-10T12:32:24.720Z,0.52
2022-08-10T12:34:17.012Z,0.70
2022-08-10T12:36:17.472Z,0.50
2022-08-10T12:37:27.194Z,0.68
2022-08-10T12:38:29.769Z,0.90
2022-08-10T12:40:17.560Z,0.82
2022-08-10T12:41:43.513Z,0.60
2022-08-10T12:43:02.385Z,0.70
2022-08-10T12:44:47.419Z,0.35
2022-08-10T12:46:03.073Z,0.40
2022-08-10T12:47:22.672Z,0.52
2022-08-10T12:48:48.636Z,0.50
2022-08-10T12:50:29.280Z,0.55
2022-08-10T12:51:38.158Z,0.50
2022-08-10T12:52:56.534Z,0.65
2022-08-10T12:54:10.493Z,0.50
2022-08-10T12:55:14.470Z,0.40
2022-08-10T12:56:28.195Z,0.50
2022-08-10T12:57:36.393Z,0.30
2022-08-10T12:58:57.287Z,0.50
2022-08-10T13:00:02.151Z,0.57
2022-08-10T13:01:22.597Z,0.50
2022-08-10T13:02:30.585Z,0.35
2022-08-10T13:04:22.398Z,0.40
2022-08-10T13:05:01.507Z,0.52
2022-08-10T13:06:06.620Z,0.80
2022-08-10T13:07:09.898Z,0.85
2022-08-10T13:08:32.339Z,0.50
2022-08-10T13:09:56.255Z,0.60
2022-08-10T13:11:18.474Z,0.38
2022-08-10T13:12:44.278Z,0.50
2022-08-10T13:13:49.351Z,0.70
2022-08-10T13:15:25.304Z,0.70
2022-08-10T13:16:31.149Z,0.60
2022-08-10T13:17:39.762Z,0.50
2022-08-10T13:18:46.674Z,0.68
2022-08-10T13:19:54.837Z,0.60
2022-08-10T13:21:20.107Z,0.57
2022-08-10T13:22:30.375Z,0.65
2022-08-10T13:23:37.721Z,0.68
2022-08-10T13:24:45.010Z,0.77
2022-08-10T13:25:48.716Z,0.50
2022-08-10T13:27:20.357Z,1.30
2022-08-10T13:28:37.395Z,0.60
2022-08-10T13:30:06.952Z,0.45
2022-08-10T13:31:18.451Z,0.57
2022-08-10T13:32:27.503Z,0.40
2022-08-10T13:34:39.391Z,0.70
2022-08-10T13:34:58.135Z,0.50
2022-08-10T13:36:02.589Z,0.60
2022-08-10T13:37:12.206Z,0.68
2022-08-10T13:38:20.477Z,0.52
2022-08-10T13:39:25.975Z,0.32
2022-08-10T13:40:29.269Z,0.60
2022-08-10T13:41:38.141Z,0.70
2022-08-10T13:42:42.411Z,0.40
2022-08-10T13:43:57.422Z,0.47
2022-08-10T13:45:10.319Z,0.82
2022-08-10T13:46:22.424Z,0.55
2022-08-10T13:47:36.122Z,0.30
2022-08-10T13:48:53.585Z,0.50
2022-08-10T13:50:00.134Z,0.60
2022-08-10T13:51:03.674Z,0.45
2022-08-10T13:52:19.080Z,0.40
2022-08-10T13:53:22.688Z,0.70
2022-08-10T13:54:28.501Z,1.13
2022-08-10T13:55:53.368Z,0.88
2022-08-10T13:56:54.572Z,0.70
2022-08-10T13:58:01.581Z,0.85
2022-08-10T13:59:09.405Z,1.02
2022-08-10T14:00:34.099Z,1.30
2022-08-10T14:01:37.030Z,0.70
2022-08-10T14:02:49.076Z,0.63
2022-08-10T14:03:53.162Z,0.80
2022-08-10T14:04:58.831Z,1.08
2022-08-10T14:06:04.226Z,0.77
2022-08-10T14:07:07.179Z,0.88
2022-08-10T14:08:15.789Z,1.00
2022-08-10T14:09:22.933Z,0.80
2022-08-10T14:11:04.073Z,1.00
2022-08-10T14:11:52.109Z,1.17
2022-08-10T14:12:56.175Z,5.20
2022-08-10T14:14:02.065Z,5.45
2022-08-10T14:15:12.801Z,7.28
2022-08-10T14:17:22.043Z,2.53
2022-08-10T14:18:25.445Z,1.27
2022-08-10T14:19:31.005Z,1.10
2022-08-10T14:20:37.281Z,0.75
2022-08-10T14:21:41.547Z,1.05
2022-08-10T14:22:44.342Z,0.85
2022-08-10T14:23:53.112Z,0.80
2022-08-10T14:25:05.710Z,0.95
2022-08-10T14:26:09.840Z,1.00
2022-08-10T14:27:17.106Z,1.55
2022-08-10T14:28:24.214Z,1.08
2022-08-10T14:29:27.807Z,1.17
2022-08-10T14:30:32.144Z,1.30
2022-08-10T14:31:37.197Z,0.65
2022-08-10T14:32:47.679Z,0.60
2022-08-10T14:36:21.052Z,0.80
2022-08-10T14:36:42.182Z,0.80
2022-08-10T14:37:56.511Z,0.85
2022-08-10T14:39:00.955Z,1.45
2022-08-10T14:40:16.128Z,1.10
2022-08-10T14:42:02.918Z,1.63
2022-08-10T14:43:00.595Z,1.95
2022-08-10T14:44:08.694Z,1.63
2022-08-10T14:45:19.666Z,1.60
2022-08-10T14:46:24.396Z,1.40
2022-08-10T14:47:53.870Z,2.50
2022-08-10T14:48:53.661Z,3.15
2022-08-10T14:49:58.563Z,3.63
2022-08-10T14:51:02.324Z,3.20
2022-08-10T14:52:05.489Z,3.35
2022-08-10T14:53:19.228Z,2.30
2022-08-10T14:54:25.542Z,4.03
2022-08-10T14:55:31.823Z,3.92
2022-08-10T14:56:56.407Z,3.28
2022-08-10T14:58:16.717Z,2.53
2022-08-10T15:00:14.628Z,2.35
2022-08-10T15:00:51.523Z,2.72
2022-08-10T15:02:38.663Z,2.13
2022-08-10T15:04:00.791Z,1.48
2022-08-10T15:04:53.201Z,1.17
2022-08-10T15:05:59.077Z,1.30
2022-08-10T15:07:22.234Z,1.17
2022-08-10T15:08:28.980Z,1.40
2022-08-10T15:09:59.510Z,1.17
2022-08-10T15:11:06.830Z,1.27
2022-08-10T15:12:14.081Z,1.05
2022-08-10T15:14:42.862Z,1.38
2022-08-10T15:16:11.450Z,1.70
2022-08-10T15:17:12.027Z,1.25
2022-08-10T15:18:15.177Z,1.20
2022-08-10T15:20:00.688Z,1.50
2022-08-10T15:20:44.588Z,1.25
2022-08-10T15:22:01.440Z,1.02
2022-08-10T15:23:30.960Z,1.67
2022-08-10T15:24:53.580Z,1.60
2022-08-10T15:25:59.935Z,1.33
2022-08-10T15:27:08.785Z,1.00
2022-08-10T15:28:16.719Z,0.80
2022-08-10T15:29:23.608Z,1.02
2022-08-10T15:30:32.254Z,0.85
2022-08-10T15:31:56.122Z,1.15
2022-08-10T15:33:21.510Z,1.17
2022-08-10T15:35:03.173Z,0.98
2022-08-10T15:36:24.907Z,1.10
2022-08-10T15:37:39.655Z,1.27
2022-08-10T15:38:44.618Z,1.00
2022-08-10T15:40:24.615Z,1.13
2022-08-10T15:41:18.634Z,1.00
2022-08-10T15:42:27.270Z,1.00
2022-08-10T15:43:36.793Z,1.17
2022-08-10T15:44:41.953Z,1.08
2022-08-10T15:45:49.876Z,1.00
2022-08-10T15:47:02.648Z,1.25
2022-08-10T15:48:06.438Z,0.70
2022-08-10T15:49:20.527Z,1.10
2022-08-10T15:50:35.047Z,0.90
2022-08-10T15:51:56.887Z,0.98
2022-08-10T15:53:03.678Z,0.80
2022-08-10T15:54:12.137Z,1.13
2022-08-10T15:55:44.217Z,0.80
2022-08-10T15:56:55.988Z,0.73
2022-08-10T15:58:38.762Z,0.88
2022-08-10T16:00:16.763Z,0.90
2022-08-10T16:02:14.322Z,0.80
2022-08-10T16:03:02.465Z,0.95
2022-08-10T16:04:13.894Z,0.95
2022-08-10T16:06:00.106Z,1.27
2022-08-10T16:06:54.728Z,1.10
2022-08-10T16:08:00.521Z,1.33
2022-08-10T16:10:23.796Z,1.00
2022-08-10T16:10:53.653Z,1.02
2022-08-10T16:12:05.825Z,1.17
2022-08-10T16:13:50.518Z,0.90
2022-08-10T16:14:36.080Z,0.80
2022-08-10T16:15:39.937Z,0.90
2022-08-10T16:16:46.418Z,0.60
2022-08-10T16:17:54.752Z,1.17
2022-08-10T16:19:03.380Z,0.80
2022-08-10T16:20:27.427Z,0.82
2022-08-10T16:21:30.561Z,0.82